Regionale Übersicht

METAR und TAF

Sonntag, 22. September 2019 - 10:15 Uhr

Beobachtete horizontale meteorologische Sicht an ausgewählten Flughäfen. Die vollständigen METARs und Flugwettervorhersagen (TAFs) sind verfügbar, wenn Sie auf das entsprechende Symbol mit der ICAO-Flughafenkennung klicken.

  • Luxemburg (ELLX)

    Taf: TAF ELLX 220500Z 2206/2312 07006KT CAVOK BECMG 2209/2211 17010KT TEMPO 2215/2221 17015G25KT 3000 SHRA TSRA BKN012 SCT020CB BECMG 2221/2223 23010KT 9999 BKN015 TEMPO 2221/2306 2000 RA OVC010 BECMG 2310/2312 SCT030=

    Metar: METAR ELLX 220750Z 11004KT 080V140 CAVOK 15/07 Q1012 NOSIG=

  • Spangdahlem (ETAD)

    Taf: TAF AMD ETAD 211800Z 2118/2220 08006KT 9999 FEW030 QNH2990INS BECMG 2208/2209 12006KT 9999 SCT030 BKN050 QNH2982INS BECMG 2217/2218 16006KT 9999 SCT020 BKN040 QNH2980INS BECMG 2219/2220 20016KT 9000 -SHRA SCT015 BKN030 QNH2982INS TX23/2215Z TN10/2204Z LAST NO AMDS AFT 2118 NEXT 2210=

    Metar: nil

  • Metz/Nancy (LFJL)

    Taf: TAF LFJL 220500Z 2206/2306 11006KT 9999 FEW050 BKN090 BECMG 2209/2212 18010KT BECMG 2215/2217 26010KT TEMPO 2217/2219 26017G33KT 4000 SHRA SCT050TCU PROB40 TEMPO 2217/2219 2000 TSRA BKN020 FEW040CB TEMPO 2219/2302 4000 RA BKN015 TEMPO 2302/2306 -RA BKN010=

    Metar: nil

  • Saarbrücken/Intl (EDDR)

    Taf: TAF EDDR 220500Z 2206/2306 06005KT CAVOK BECMG 2210/2213 15005KT PROB30 TEMPO 2214/2219 SHRA BKN040CB TEMPO 2219/2224 4000 SHRA BKN009 BKN020CB BECMG 2220/2222 22008KT BKN012 TEMPO 2300/2306 3000 RA BKN005=

    Metar: nil

  • Hahn (EDFH)

    Taf: TAF EDFH 220500Z 2206/2306 14012KT CAVOK BECMG 2220/2223 25008KT TEMPO 2220/2224 4000 SHRA BKN010CB TEMPO 2300/2306 2000 RA BKN003=

    Metar: nil

  • Ramstein (ETAR)

    Taf: TAF ETAR 220212Z 2202/2308 VRB06KT 9999 SKC QNH2991INS BECMG 2207/2208 VRB06KT 9999 BKN150 QNH2983INS BECMG 2220/2221 27006KT 8000 -SHRA BKN040 QNH2983INS BECMG 2302/2303 27012G18KT 8000 -SHRA BKN015 620901 QNH2992INS TX21/2213Z TNM01/2301Z=

    Metar: nil

  • Nancy/Ochey (LFSO)

    Taf: TAF LFSO 220200Z NIL=

    Metar: nil

  • Liège Bierset (EBLG)

    Taf: TAF EBLG 220500Z 2206/2312 17007KT CAVOK TEMPO 2217/2220 24015G25KT 4000 SHRA BKN012 SCT025CB=

    Metar: nil

  • Saint-Dizier (LFSI)

    Taf: TAF LFSI 220200Z 2203/2303 14010KT CAVOK TEMPO 2212/2303 4000 -RA BKN010=

    Metar: nil

  • Maastricht/Zuid Limburg (EHBK)

    Taf: TAF EHBK 220521Z 2206/2312 15008KT CAVOK BECMG 2208/2211 18013KT BECMG 2218/2220 26013KT TEMPO 2218/2223 27015G25KT 4000 SHRA RA BKN012 SCT025CB BECMG 2223/2301 23008KT TEMPO 2223/2304 6000 RA BKN012 BECMG 2304/2307 6000 BKN012 BECMG 2308/2310 9999 BKN020=

    Metar: nil

  • Köln/Köln-Bonn (EDDK)

    Taf: TAF EDDK 220500Z 2206/2312 13008KT CAVOK PROB40 TEMPO 2219/2222 19007KT SHRA BKN025CB BECMG 2223/2302 27005KT TEMPO 2300/2307 RA BKN012 PROB40 TEMPO 2305/2311 BKN008=

    Metar: METAR EDDK 220750Z 13009KT 080V160 CAVOK 18/07 Q1011 NOSIG=

  • Charleroi (EBCI)

    Taf: TAF EBCI 220500Z 2206/2312 17008KT CAVOK TEMPO 2216/2219 24015G25KT 4000 SHRA BKN012 SCT025CB=

    Metar: nil

  • Wiesbaden (ETOU)

    Taf: TAF ETOU 211313Z 2113/2219 09009KT 9999 SKC QNH3002INS BECMG 2117/2118 VRB06KT 9999 SKC QNH2989INS TX26/2115Z TN08/2204Z LAST NO AMDS AFT 2117=

    Metar: nil

  • Karlsruhe/Baden-Baden (EDSB)

    Taf: TAF EDSB 220500Z 2206/2306 VRB03KT CAVOK TEMPO 2214/2220 SHRA BKN030CB TEMPO 2220/2224 3000 SHRA BKN010 BKN020CB BECMG 2300/2303 22008KT TEMPO 2300/2306 2000 RA BKN006=

    Metar: nil

  • Chalons/Vatry (LFOK)

    Taf: TAF LFOK 220500Z 2206/2306 15010KT CAVOK BECMG 2210/2212 21012KT TEMPO 2212/2215 24017G27KT 3000 SHRA BKN013 BKN040CB BECMG 2218/2220 BKN008=

    Metar: nil

  • Frankfurt/Main (EDDF)

    Taf: TAF EDDF 220500Z 2206/2312 06005KT CAVOK BECMG 2211/2213 15005KT BECMG 2217/2219 VRB03KT BECMG 2222/2224 BKN035 TEMPO 2300/2306 4000 SHRA BKN014 BKN025CB PROB40 TEMPO 2306/2311 3000 RA BKN010=

    Metar: METAR EDDF 220750Z 05007KT CAVOK 16/07 Q1013 NOSIG=

  • Brüssel (EBBR)

    Taf: TAF EBBR 220500Z 2206/2312 17009KT CAVOK TEMPO 2216/2220 24015G25KT 4000 SHRA BKN014 SCT030CB=

    Metar: METAR EBBR 220750Z 16010KT CAVOK 20/10 Q1008 NOSIG=

  • Düsseldorf (EDDL)

    Taf: TAF EDDL 220500Z 2206/2312 14010KT CAVOK PROB40 TEMPO 2219/2222 20008KT SHRA BKN025CB BECMG 2222/2301 24006KT TEMPO 2300/2307 RA BKN012 PROB40 TEMPO 2305/2311 BKN008=

    Metar: nil

  • Luxeuil (LFSX)

    Taf: TAF LFSX 220200Z NIL=

    Metar: nil

  • Eindhoven (EHEH)

    Taf: TAF EHEH 220520Z 2206/2312 12005KT CAVOK BECMG 2208/2210 15008KT PROB30 TEMPO 2216/2219 20010G20KT 9999 SCT060CB BKN080 BECMG 2218/2220 25008KT TEMPO 2219/2222 19010G20KT 3000 RA TSRA SCT012 BKN020CB OVC028 TEMPO 2222/2303 4500 RA SCT010 OVC050 PROB30 2302/2308 BKN006 BECMG 2310/2312 SCT022=

    Metar: nil

  • Niederrhein (EDLV)

    Taf: TAF EDLV 220500Z 2206/2306 13008KT CAVOK PROB40 TEMPO 2218/2222 19008KT SHRA BKN025CB BECMG 2222/2224 24005KT TEMPO 2300/2306 4000 RA BKN012=

    Metar: nil

  • Dortmund/Wickede (EDLW)

    Taf: TAF EDLW 220500Z 2206/2306 12006KT CAVOK BECMG 2220/2223 19005KT PROB30 TEMPO 2302/2304 SHRA BKN025TCU BECMG 2302/2304 25006KT BKN012 TEMPO 2304/2306 4000 RA BKN008=

    Metar: nil

  • Stuttgart/Echterdingen (EDDS)

    Taf: TAF EDDS 220500Z 2206/2306 VRB03KT CAVOK TEMPO 2301/2306 4000 RA BKN010 BECMG 2301/2304 25006KT=

    Metar: METAR EDDS 220750Z VRB02KT CAVOK 11/08 Q1013 NOSIG=

  • Basel-Mühlhausen (LFSB)

    Taf: TAF AMD LFSB 220635Z 2206/2306 18005KT CAVOK PROB40 TEMPO 2214/2218 32010KT -SHRA FEW050CB BECMG 2218/2220 26010KT -RA FEW050TCU BKN070 TEMPO 2219/2302 26015G30KT 3000 RA BKN025 SCT050CB PROB30 TEMPO 2219/2224 TSRA=

    Metar: METAR LFSB 220800Z 16004KT 120V210 CAVOK 17/12 Q1012 NOSIG=

  • Lille (LFQQ)

    Taf: TAF LFQQ 220500Z 2206/2312 16007KT CAVOK BECMG 2213/2216 24013KT TEMPO 2213/2217 24019G29KT 3000 SHRA BKN013 BKN040CB BECMG 2218/2221 18008KT TEMPO 2308/2311 OVC007=

    Metar: nil

  • Paris/Charles de Gaulle (LFPG)

    Taf: TAF LFPG 220500Z 2206/2312 15008KT CAVOK TX22/2211Z TN14/2302Z BECMG 2208/2210 20010KT BKN040 TEMPO 2211/2214 23015G25KT 4000 RA BKN012 PROB30 TEMPO 2211/2214 TSRA SCT012CB BKN012 BECMG 2221/2223 CAVOK PROB40 TEMPO 2303/2306 BKN013=

    Metar: nil

  • Paderborn/Lippstadt (EDLP)

    Taf: TAF EDLP 220500Z 2206/2306 13008KT CAVOK BECMG 2220/2223 19004KT BECMG 2304/2306 25006KT=

    Metar: nil

  • Paris/Le Bourget (LFPB)

    Taf: TAF LFPB 220500Z 2206/2306 15008KT CAVOK BECMG 2208/2210 20010KT BKN040 TEMPO 2211/2214 23015G25KT 4000 RA BKN012 PROB30 TEMPO 2211/2214 TSRA SCT012CB BKN012 BECMG 2221/2223 CAVOK PROB40 TEMPO 2303/2306 BKN013=

    Metar: METAR LFPB 220800Z AUTO 17007KT 140V200 9999 BKN047 BKN074 21/13 Q1007 NOSIG=

  • Rotterdam (EHRD)

    Taf: TAF EHRD 220514Z 2206/2312 12007KT CAVOK BECMG 2207/2210 15011KT BECMG 2216/2218 13005KT BECMG 2218/2220 25012KT PROB40 TEMPO 2218/2223 27015G30KT 4000 SHRA RA SCT008 BKN012 SCT030CB BECMG 2223/2302 21005KT 5000 BR SCT008 BKN012 BECMG 2309/2312 24012KT 9999 NSW SCT018=

    Metar: nil

  • Zürich/Kloten (LSZH)

    Taf: TAF LSZH 220525Z 2206/2312 VRB03KT CAVOK TX23/2214Z TN12/2206Z TN14/2305Z BECMG 2221/2224 9999 SCT020 BKN050 BECMG 2223/2302 27014G28KT SHRA BECMG 2303/2306 24007KT TEMPO 2304/2312 NSW=

    Metar: METAR LSZH 220750Z VRB01KT CAVOK 14/11 Q1014 NOSIG=

  • Oostende/Intl (EBOS)

    Taf: TAF EBOS 220500Z 2206/2312 16010KT CAVOK TEMPO 2215/2220 24018G28KT 4000 SHRA BKN014 SCT025CB BECMG 2310/2312 25012KT=

    Metar: nil

  • Paris/Orly (LFPO)

    Taf: TAF LFPO 220500Z 2206/2312 17007KT CAVOK PROB30 TEMPO 2207/2209 -SHRA BKN040TCU BECMG 2209/2211 21010KT -RA BKN025 TEMPO 2211/2213 2500 RA BKN012 SCT030CB PROB30 TEMPO 2211/2213 20015G25KT -TSRA BECMG 2213/2215 NSW SCT020 PROB30 TEMPO 2219/2221 -SHRA SCT014 BKN020TCU TEMPO 2301/2308 BKN014 PROB30 TEMPO 2304/2307 BKN008=

    Metar: nil

  • Beauvais (LFOB)

    Taf: TAF LFOB 220500Z 2206/2306 13005KT CAVOK BECMG 2209/2213 24012KT TEMPO 2210/2213 3000 SHRA BKN013 BKN040CB PROB30 TEMPO 2218/2221 4000 SHRA BKN040TCU=

    Metar: nil

  • Münster/Intl (EDDG)

    Taf: TAF EDDG 220500Z 2206/2306 11006KT CAVOK BECMG 2219/2222 VRB03KT PROB30 TEMPO 2304/2306 27005KT 4000 RA BKN012=

    Metar: METAR EDDG 220750Z 11005KT 040V170 CAVOK 17/08 Q1011 NOSIG=

  • Duebendorf (LSMD)

    Taf: TAF LSMD 220500Z NIL=

    Metar: nil

  • Villacoublay (LFPV)

    Taf: TAF LFPV 220800Z 2209/2309 19010KT 9999 BKN035 OVC060 BECMG 2210/2211 4500 -RA BKN014 TEMPO 2211/2213 23015G25KT 2500 SHRA BKN008 BKN015CB BECMG 2213/2214 9999 SCT020 PROB30 2303/2308 BKN012=

    Metar: nil

  • Payerne (LSMP)

    Taf: TAF LSMP 220525Z 2206/2312 VRB03KT 9999 FEW090 BKN110 TEMPO 2220/2223 SHRA SCT060TCU PROB40 TEMPO 2220/2223 30010KT TSRA SCT040CB=

    Metar: nil

  • Amsterdam/Schipol (EHAM)

    Taf: TAF EHAM 220514Z 2206/2312 11009KT CAVOK BECMG 2208/2211 16011KT BECMG 2216/2218 13005KT BECMG 2219/2222 25012KT PROB40 TEMPO 2219/2303 27015G25KT 4000 SHRA RA BKN012 SCT030CB BECMG 2300/2303 21007KT 5000 BR SCT008 BKN012 BECMG 2309/2312 24012KT 9999 NSW SCT018=

    Metar: METAR EHAM 220755Z 12009KT CAVOK 17/09 Q1008 NOSIG=

  • Emmen (LSME)

    Taf: TAF LSME 220500Z NIL=

    Metar: nil

  • Friedrichshafen (EDNY)

    Taf: TAF EDNY 220500Z 2206/2306 VRB03KT CAVOK TEMPO 2211/2215 24005KT BECMG 2300/2302 25006KT TEMPO 2300/2306 4500 RA BKN009=

    Metar: nil

  • Alpnach (LSMA)

    Taf: TAF LSMA 220500Z NIL=

    Metar: nil

  • Meiringen (LSMM)

    Taf: TAF LSMM 220500Z NIL=

    Metar: nil

  • Nürnberg (EDDN)

    Taf: TAF EDDN 220500Z 2206/2306 VRB02KT CAVOK BECMG 2206/2209 12006KT BECMG 2304/2306 21005KT=

    Metar: METAR EDDN 220750Z 09008KT CAVOK 14/06 Q1014 NOSIG=

  • Rouen (LFOP)

    Taf: TAF LFOP 220500Z 2206/2306 17010KT CAVOK TEMPO 2210/2212 RA OVC013 BECMG 2212/2214 22010KT TEMPO 2214/2220 3000 SHRA BKN030CB BECMG 2303/2306 BKN013=

    Metar: nil

  • Evreux (LFOE)

    Taf: TAF LFOE 220735Z 2207/2303 CNL=

    Metar: nil

  • Erfurt/Bindersleben (EDDE)

    Taf: TAF EDDE 220500Z 2206/2306 08004KT CAVOK BECMG 2214/2216 14005KT BECMG 2218/2220 20005KT=

    Metar: nil